createdAt,value
2022-09-29T00:01:59.492Z,99749.56
2022-09-29T00:04:25.781Z,99750.47
2022-09-29T00:06:52.064Z,99754.81
2022-09-29T00:09:18.390Z,99750.44
2022-09-29T00:11:44.771Z,99753.97
2022-09-29T00:14:11.058Z,99752.19
2022-09-29T00:16:37.365Z,99746.09
2022-09-29T00:19:04.586Z,99747.81
2022-09-29T00:21:30.899Z,99754.84
2022-09-29T00:24:00.535Z,99749.59
2022-09-29T00:26:26.851Z,99746.97
2022-09-29T00:28:57.969Z,99752.22
2022-09-29T00:31:25.337Z,99748.72
2022-09-29T00:33:52.512Z,99751.34
2022-09-29T00:36:19.771Z,99748.72
2022-09-29T00:38:49.583Z,99752.22
2022-09-29T00:41:17.990Z,99754.84
2022-09-29T00:44:02.050Z,99751.31
2022-09-29T00:46:34.464Z,99746.97
2022-09-29T00:49:12.761Z,99743.47
2022-09-29T00:51:40.389Z,99747.84
2022-09-29T00:54:07.994Z,99747.84
2022-09-29T00:56:36.267Z,99753.09
2022-09-29T00:59:06.955Z,99756.59
2022-09-29T01:01:33.405Z,99753.09
2022-09-29T01:04:03.147Z,99749.56
2022-09-29T01:06:32.592Z,99749.56
2022-09-29T01:09:19.143Z,99754.81
2022-09-29T01:11:45.697Z,99751.31
2022-09-29T01:14:12.756Z,99743.44
2022-09-29T01:16:41.873Z,99740.81
2022-09-29T01:19:12.237Z,99748.69
2022-09-29T01:21:47.763Z,99750.44
2022-09-29T01:24:20.309Z,99750.44
2022-09-29T01:26:46.627Z,99747.81
2022-09-29T01:29:22.899Z,99752.19
2022-09-29T01:31:55.195Z,99749.56
2022-09-29T01:34:33.566Z,99748.72
2022-09-29T01:37:08.664Z,99748.72
2022-09-29T01:39:43.600Z,99760.06
2022-09-29T01:42:16.153Z,99747.81
2022-09-29T01:44:46.825Z,99746.06
2022-09-29T01:47:16.375Z,99752.16
2022-09-29T01:49:48.849Z,99747.81
2022-09-29T01:52:18.075Z,99751.28
2022-09-29T01:54:52.547Z,99749.53
2022-09-29T01:57:25.464Z,99754.81
2022-09-29T01:59:59.066Z,99750.44
2022-09-29T02:02:37.780Z,99749.56
2022-09-29T02:05:07.992Z,99753.91
2022-09-29T02:07:37.127Z,99749.56
2022-09-29T02:10:19.498Z,99747.78
2022-09-29T02:12:47.071Z,99754.81
2022-09-29T02:15:17.209Z,99750.41
2022-09-29T02:17:45.569Z,99748.66
2022-09-29T02:20:12.455Z,99760.03
2022-09-29T02:22:39.079Z,99752.16
2022-09-29T02:25:08.401Z,99749.56
2022-09-29T02:27:35.845Z,99749.53
2022-09-29T02:30:02.137Z,99746.91
2022-09-29T02:32:29.906Z,99739.91
2022-09-29T02:34:56.640Z,99738.16
2022-09-29T02:37:25.636Z,99738.16
2022-09-29T02:40:18.454Z,99749.53
2022-09-29T02:42:55.759Z,99742.53
2022-09-29T02:45:41.006Z,99752.16
2022-09-29T02:48:07.276Z,99749.53
2022-09-29T02:50:36.621Z,99757.41
2022-09-29T02:53:05.879Z,99744.28
2022-09-29T02:55:41.644Z,99737.28
2022-09-29T02:58:07.864Z,99746.03
2022-09-29T03:00:34.439Z,99743.41
2022-09-29T03:03:00.975Z,99749.53
2022-09-29T03:05:27.476Z,99739.03
2022-09-29T03:07:53.753Z,99741.66
2022-09-29T03:10:20.060Z,99739.03
2022-09-29T03:12:47.259Z,99741.66
2022-09-29T03:15:13.931Z,99739.91
2022-09-29T03:17:40.623Z,99742.53
2022-09-29T03:20:07.352Z,99749.53
2022-09-29T03:22:34.011Z,99737.28
2022-09-29T03:25:00.264Z,99748.66
2022-09-29T03:27:26.532Z,99738.16
2022-09-29T03:29:52.867Z,99737.28
2022-09-29T03:32:19.148Z,99741.66
2022-09-29T03:34:45.382Z,99743.41
2022-09-29T03:37:11.719Z,99735.53
2022-09-29T03:39:38.107Z,99738.16
2022-09-29T03:42:04.490Z,99737.28
2022-09-29T03:44:30.753Z,99744.28
2022-09-29T03:46:57.024Z,99747.78
2022-09-29T03:49:23.262Z,99745.16
2022-09-29T03:51:49.547Z,99748.63
2022-09-29T03:54:15.807Z,99746.91
2022-09-29T03:56:42.116Z,99748.63
2022-09-29T03:59:10.520Z,99754.78
2022-09-29T04:01:38.135Z,99754.78
2022-09-29T04:04:06.752Z,99758.25
2022-09-29T04:06:33.152Z,99760.88
2022-09-29T04:08:59.418Z,99759.13
2022-09-29T04:11:25.675Z,99760.91
2022-09-29T04:13:52.119Z,99762.66
2022-09-29T04:16:18.463Z,99768.78
2022-09-29T04:18:44.835Z,99768.78
2022-09-29T04:21:11.681Z,99772.25
2022-09-29T04:23:38.411Z,99773.16
2022-09-29T04:26:05.385Z,99771.41
2022-09-29T04:28:32.550Z,99770.53
2022-09-29T04:30:58.905Z,99768.78
2022-09-29T04:33:25.258Z,99774.91
2022-09-29T04:35:51.584Z,99778.41
2022-09-29T04:38:18.020Z,99778.41
2022-09-29T04:40:44.497Z,99781.03
2022-09-29T04:43:10.862Z,99777.53
2022-09-29T04:45:37.182Z,99788.00
2022-09-29T04:48:03.527Z,99784.53
2022-09-29T04:50:30.023Z,99788.91
2022-09-29T04:52:56.389Z,99781.88
2022-09-29T04:55:22.921Z,99788.91
2022-09-29T04:57:49.305Z,99786.28
2022-09-29T05:00:16.083Z,99786.28
2022-09-29T05:02:45.542Z,99784.53
2022-09-29T05:05:14.545Z,99786.28
2022-09-29T05:07:41.543Z,99792.38
2022-09-29T05:10:08.991Z,99788.06
2022-09-29T05:12:35.261Z,99784.53
2022-09-29T05:15:01.585Z,99782.81
2022-09-29T05:17:27.827Z,99787.16
2022-09-29T05:19:54.059Z,99788.91
2022-09-29T05:22:24.291Z,99784.53
2022-09-29T05:24:53.519Z,99783.66
2022-09-29T05:27:20.463Z,99790.66
2022-09-29T05:29:46.745Z,99801.16
2022-09-29T05:32:13.083Z,99786.28
2022-09-29T05:34:39.419Z,99792.41
2022-09-29T05:37:05.835Z,99784.50
2022-09-29T05:39:34.502Z,99788.88
2022-09-29T05:42:02.270Z,99785.38
2022-09-29T05:44:28.549Z,99790.63
2022-09-29T05:46:54.856Z,99788.88
2022-09-29T05:49:21.366Z,99785.38
2022-09-29T05:51:47.876Z,99783.59
2022-09-29T05:54:14.219Z,99784.47
2022-09-29T05:56:44.497Z,99780.97
2022-09-29T05:59:11.798Z,99786.22
2022-09-29T06:01:38.242Z,99789.69
2022-09-29T06:04:04.583Z,99787.06
2022-09-29T06:06:30.890Z,99786.19
2022-09-29T06:08:58.460Z,99792.31
2022-09-29T06:11:28.875Z,99783.56
2022-09-29T06:13:55.570Z,99790.53
2022-09-29T06:16:23.446Z,99791.41
2022-09-29T06:18:50.040Z,99794.91
2022-09-29T06:21:21.233Z,99794.91
2022-09-29T06:23:47.513Z,99791.38
2022-09-29T06:26:16.469Z,99790.50
2022-09-29T06:28:44.317Z,99791.34
2022-09-29T06:31:11.842Z,99780.81
2022-09-29T06:33:38.523Z,99788.66
2022-09-29T06:36:26.948Z,99786.03
2022-09-29T06:38:53.229Z,99787.75
2022-09-29T06:41:21.848Z,99788.59
2022-09-29T06:43:48.109Z,99790.31
2022-09-29T06:46:16.617Z,99789.44
2022-09-29T06:48:42.899Z,99790.25
2022-09-29T06:51:10.543Z,99789.38
2022-09-29T06:53:38.847Z,99784.94
2022-09-29T06:56:05.548Z,99788.47
2022-09-29T06:58:31.909Z,99788.41
2022-09-29T07:01:01.743Z,99791.84
2022-09-29T07:03:28.729Z,99783.13
2022-09-29T07:06:18.403Z,99785.75
2022-09-29T07:08:41.291Z,99794.41
2022-09-29T07:11:08.420Z,99795.28
2022-09-29T07:13:35.009Z,99790.84
2022-09-29T07:16:07.068Z,99800.41
2022-09-29T07:18:37.682Z,99796.00
2022-09-29T07:21:11.130Z,99804.72
2022-09-29T07:23:38.108Z,99805.56
2022-09-29T07:26:08.010Z,99802.91
2022-09-29T07:28:34.667Z,99796.75
2022-09-29T07:31:12.610Z,99804.66
2022-09-29T07:33:40.498Z,99803.75
2022-09-29T07:36:07.067Z,99810.78
2022-09-29T07:38:33.347Z,99804.50
2022-09-29T07:41:00.326Z,99812.28
2022-09-29T07:43:26.844Z,99810.47
2022-09-29T07:45:53.149Z,99822.69
2022-09-29T07:48:19.601Z,99823.63
2022-09-29T07:50:46.135Z,99835.91
2022-09-29T07:53:12.875Z,99839.44
2022-09-29T07:55:39.309Z,99838.50
2022-09-29T07:58:05.611Z,99839.41
2022-09-29T08:00:32.462Z,99835.00
2022-09-29T08:03:02.372Z,99849.78
2022-09-29T08:05:29.277Z,99844.47
2022-09-29T08:07:55.583Z,99845.28
2022-09-29T08:10:21.903Z,99850.44
2022-09-29T08:12:48.159Z,99851.22
2022-09-29T08:15:14.426Z,99845.84
2022-09-29T08:17:40.705Z,99853.72
2022-09-29T08:20:07.095Z,99854.53
2022-09-29T08:22:35.783Z,99856.16
2022-09-29T08:25:02.638Z,99859.63
2022-09-29T08:27:45.285Z,99863.16
2022-09-29T08:30:16.794Z,99861.34
2022-09-29T08:32:43.146Z,99864.69
2022-09-29T08:35:09.652Z,99857.56
2022-09-29T08:37:36.176Z,99866.31
2022-09-29T08:40:02.508Z,99863.69
2022-09-29T08:42:46.325Z,99868.09
2022-09-29T08:45:19.985Z,99871.69
2022-09-29T08:47:49.035Z,99884.06
2022-09-29T08:50:37.626Z,99880.53
2022-09-29T08:53:22.088Z,99884.09
2022-09-29T08:55:52.765Z,99878.00
2022-09-29T08:58:19.533Z,99882.34
2022-09-29T09:00:53.226Z,99877.84
2022-09-29T09:03:38.107Z,99879.50
2022-09-29T09:06:07.492Z,99883.03
2022-09-29T09:08:55.780Z,99887.44
2022-09-29T09:11:31.076Z,99878.69
2022-09-29T09:14:08.163Z,99890.22
2022-09-29T09:16:52.727Z,99880.66
2022-09-29T09:19:19.265Z,99887.72
2022-09-29T09:21:53.995Z,99884.25
2022-09-29T09:24:28.832Z,99891.28
2022-09-29T09:26:56.078Z,99893.88
2022-09-29T09:29:22.297Z,99891.31
2022-09-29T09:31:54.521Z,99898.34
2022-09-29T09:34:34.834Z,99898.34
2022-09-29T09:37:11.411Z,99904.44
2022-09-29T09:39:42.866Z,99903.63
2022-09-29T09:42:15.055Z,99901.88
2022-09-29T09:44:50.524Z,99904.53
2022-09-29T09:47:33.342Z,99901.91
2022-09-29T09:50:01.419Z,99909.88
2022-09-29T09:52:39.156Z,99910.81
2022-09-29T09:55:06.436Z,99910.88
2022-09-29T09:57:38.611Z,99914.50
2022-09-29T10:00:37.356Z,99914.53
2022-09-29T10:03:05.488Z,99915.41
2022-09-29T10:05:57.834Z,99911.00
2022-09-29T10:08:29.290Z,99918.13
2022-09-29T10:10:59.143Z,99924.25
2022-09-29T10:13:27.073Z,99930.41
2022-09-29T10:15:56.913Z,99924.34
2022-09-29T10:18:27.091Z,99920.78
2022-09-29T10:20:53.541Z,99920.78
2022-09-29T10:23:23.384Z,99920.72
2022-09-29T10:25:58.772Z,99921.63
2022-09-29T10:28:26.712Z,99917.25
2022-09-29T10:30:54.643Z,99919.88
2022-09-29T10:33:22.874Z,99919.81
2022-09-29T10:35:52.400Z,99932.09
2022-09-29T10:38:24.043Z,99928.59
2022-09-29T10:41:04.379Z,99926.00
2022-09-29T10:43:38.510Z,99933.88
2022-09-29T10:46:05.720Z,99933.03
2022-09-29T10:48:32.046Z,99933.00
2022-09-29T10:50:58.345Z,99935.66
2022-09-29T10:53:29.597Z,99936.56
2022-09-29T10:55:56.810Z,99935.66
2022-09-29T10:58:44.222Z,99933.91
2022-09-29T11:01:13.824Z,99940.97
2022-09-29T11:03:46.629Z,99936.56
2022-09-29T11:06:13.593Z,99937.41
2022-09-29T11:08:57.049Z,99936.50
2022-09-29T11:11:39.799Z,99936.56
2022-09-29T11:14:06.349Z,99947.91
2022-09-29T11:16:33.926Z,99940.91
2022-09-29T11:19:05.808Z,99945.34
2022-09-29T11:21:50.903Z,99940.06
2022-09-29T11:24:27.667Z,99943.59
2022-09-29T11:26:56.067Z,99943.59
2022-09-29T11:29:22.321Z,99947.97
2022-09-29T11:31:56.750Z,99947.09
2022-09-29T11:34:41.832Z,99955.88
2022-09-29T11:37:27.705Z,99947.97
2022-09-29T11:40:00.159Z,99957.63
2022-09-29T11:42:45.240Z,99958.53
2022-09-29T11:48:01.022Z,99951.50
2022-09-29T11:50:36.037Z,99954.16
2022-09-29T11:53:21.432Z,99952.41
2022-09-29T11:55:53.238Z,99958.59
2022-09-29T11:58:19.495Z,99956.81
2022-09-29T12:01:01.255Z,99955.97
2022-09-29T12:03:41.424Z,99956.81
2022-09-29T12:06:14.998Z,99955.97
2022-09-29T12:09:07.404Z,99956.81
2022-09-29T12:11:51.015Z,99957.69
2022-09-29T12:14:37.634Z,99962.06
2022-09-29T12:17:12.104Z,99961.16
2022-09-29T12:19:40.185Z,99961.16
2022-09-29T12:22:09.210Z,99966.44
2022-09-29T12:24:41.184Z,99959.41
2022-09-29T12:27:14.815Z,99952.41
2022-09-29T12:29:43.925Z,99959.44
2022-09-29T12:32:19.449Z,99957.69
2022-09-29T12:34:49.529Z,99955.91
2022-09-29T12:37:23.969Z,99959.41
2022-09-29T12:40:02.129Z,99957.69
2022-09-29T12:42:44.304Z,99951.53
2022-09-29T12:45:45.535Z,99957.69
2022-09-29T12:48:14.057Z,99955.03
2022-09-29T12:50:51.892Z,99950.63
2022-09-29T12:53:21.177Z,99953.28
2022-09-29T12:55:56.274Z,99955.97
2022-09-29T12:58:34.450Z,99954.19
2022-09-29T13:01:10.489Z,99959.41
2022-09-29T13:03:37.373Z,99961.16
2022-09-29T13:06:22.170Z,99954.16
2022-09-29T13:08:52.615Z,99966.44
2022-09-29T13:11:42.590Z,99969.09
2022-09-29T13:14:20.872Z,99969.94
2022-09-29T13:16:58.169Z,99968.19
2022-09-29T13:19:59.209Z,99966.44
2022-09-29T13:22:44.714Z,99968.19
2022-09-29T13:25:20.313Z,99967.34
2022-09-29T13:27:48.079Z,99972.59
2022-09-29T13:30:16.659Z,99973.50
2022-09-29T13:32:47.850Z,99969.97
2022-09-29T13:35:18.623Z,99976.09
2022-09-29T13:37:53.890Z,99969.09
2022-09-29T13:40:22.331Z,99969.97
2022-09-29T13:42:50.487Z,99976.13
2022-09-29T13:45:19.561Z,99969.97
2022-09-29T13:47:53.576Z,99974.34
2022-09-29T13:50:39.181Z,99971.72
2022-09-29T13:53:31.071Z,99970.78
2022-09-29T13:56:03.525Z,99967.22
2022-09-29T13:58:31.794Z,99980.38
2022-09-29T14:01:02.438Z,99978.63
2022-09-29T14:03:36.556Z,99976.81
2022-09-29T14:06:28.843Z,99983.00
2022-09-29T14:09:06.758Z,99974.25
2022-09-29T14:11:37.952Z,99984.78
2022-09-29T14:14:07.899Z,99981.28
2022-09-29T14:16:38.357Z,99983.03
2022-09-29T14:19:07.658Z,99978.63
2022-09-29T14:21:54.294Z,99973.34
2022-09-29T14:24:45.466Z,99983.84
2022-09-29T14:27:15.276Z,99985.56
2022-09-29T14:29:43.485Z,99980.31
2022-09-29T14:32:13.085Z,99982.03
2022-09-29T14:34:39.479Z,99992.59
2022-09-29T14:37:07.174Z,99986.50
2022-09-29T14:39:33.666Z,99987.34
2022-09-29T14:42:00.129Z,99983.88
2022-09-29T14:44:48.945Z,99995.25
2022-09-29T14:47:33.730Z,99997.91
2022-09-29T14:50:24.217Z,99998.75
2022-09-29T14:53:03.153Z,99998.75
2022-09-29T14:55:55.738Z,100001.41
2022-09-29T14:58:21.983Z,100010.22
2022-09-29T15:00:51.292Z,100018.13
2022-09-29T15:03:28.074Z,100017.28
2022-09-29T15:06:05.680Z,100022.53
2022-09-29T15:08:31.967Z,100030.44
2022-09-29T15:10:58.244Z,100029.59
2022-09-29T15:13:31.536Z,100026.06
2022-09-29T15:16:04.394Z,100031.34
2022-09-29T15:18:43.748Z,100026.97
2022-09-29T15:21:18.662Z,100034.91
2022-09-29T15:23:48.051Z,100040.16
2022-09-29T15:26:15.213Z,100027.88
2022-09-29T15:28:42.771Z,100041.06
2022-09-29T15:31:12.480Z,100045.41
2022-09-29T15:33:41.193Z,100040.97
2022-09-29T15:36:14.864Z,100042.72
2022-09-29T15:38:41.224Z,100040.06
2022-09-29T15:41:10.429Z,100025.16
2022-09-29T15:43:41.525Z,100038.31
2022-09-29T15:46:14.779Z,100036.53
2022-09-29T15:48:41.164Z,100034.78
2022-09-29T15:51:16.492Z,100037.41
2022-09-29T15:53:44.158Z,100050.59
2022-09-29T15:56:10.447Z,100051.44
2022-09-29T15:58:42.841Z,100047.06
2022-09-29T16:01:11.560Z,100056.75
2022-09-29T16:03:43.194Z,100057.59
2022-09-29T16:06:29.231Z,100067.25
2022-09-29T16:08:58.487Z,100062.84
2022-09-29T16:11:26.421Z,100061.94
2022-09-29T16:14:22.726Z,100074.22
2022-09-29T16:16:50.029Z,100071.59
2022-09-29T16:19:21.256Z,100067.16
2022-09-29T16:21:51.995Z,100075.06
2022-09-29T16:24:19.291Z,100084.72
2022-09-29T16:26:52.710Z,100080.31
2022-09-29T16:29:18.927Z,100080.34
2022-09-29T16:31:47.295Z,100092.69
2022-09-29T16:34:22.867Z,100087.41
2022-09-29T16:36:51.976Z,100090.88
2022-09-29T16:39:20.292Z,100099.63
2022-09-29T16:41:50.766Z,100109.28
2022-09-29T16:44:23.204Z,100103.97
2022-09-29T16:46:54.085Z,100108.34
2022-09-29T16:49:22.141Z,100110.13
2022-09-29T16:51:49.599Z,100114.50
2022-09-29T16:54:19.169Z,100119.78
2022-09-29T16:56:46.609Z,100118.00
2022-09-29T16:59:17.501Z,100118.00
2022-09-29T17:01:44.497Z,100120.63
2022-09-29T17:04:11.117Z,100110.97
2022-09-29T17:06:37.873Z,100122.41
2022-09-29T17:09:05.137Z,100120.63
2022-09-29T17:11:31.441Z,100123.25
2022-09-29T17:13:57.724Z,100130.28
2022-09-29T17:16:25.028Z,100135.59
2022-09-29T17:18:52.405Z,100135.59
2022-09-29T17:21:19.268Z,100134.69
2022-09-29T17:23:45.607Z,100143.47
2022-09-29T17:26:42.550Z,100140.81
2022-09-29T17:29:08.809Z,100139.97
2022-09-29T17:31:35.389Z,100145.22
2022-09-29T17:34:02.389Z,100144.34
2022-09-29T17:36:28.709Z,100147.88
2022-09-29T17:38:55.694Z,100153.16
2022-09-29T17:41:22.668Z,100152.28
2022-09-29T17:43:49.040Z,100155.81
2022-09-29T17:46:15.940Z,100157.53
2022-09-29T17:48:42.381Z,100153.16
2022-09-29T17:51:12.835Z,100157.53
2022-09-29T17:53:39.278Z,100155.81
2022-09-29T17:56:05.873Z,100165.47
2022-09-29T17:58:32.148Z,100166.34
2022-09-29T18:00:58.618Z,100172.47
2022-09-29T18:03:25.098Z,100170.75
2022-09-29T18:05:56.730Z,100172.50
2022-09-29T18:08:25.065Z,100182.19
2022-09-29T18:10:53.007Z,100182.19
2022-09-29T18:13:19.915Z,100183.09
2022-09-29T18:15:46.912Z,100186.59
2022-09-29T18:18:18.034Z,100189.22
2022-09-29T18:20:47.766Z,100182.22
2022-09-29T18:23:15.440Z,100191.03
2022-09-29T18:25:47.260Z,100193.66
2022-09-29T18:28:17.303Z,100198.94
2022-09-29T18:30:48.776Z,100196.31
2022-09-29T18:33:16.273Z,100203.38
2022-09-29T18:35:43.882Z,100206.03
2022-09-29T18:38:10.649Z,100199.00
2022-09-29T18:40:38.454Z,100209.56
2022-09-29T18:43:06.437Z,100209.50
2022-09-29T18:45:35.645Z,100213.94
2022-09-29T18:48:06.000Z,100216.56
2022-09-29T18:50:34.056Z,100214.78
2022-09-29T18:53:01.660Z,100220.97
2022-09-29T18:55:28.999Z,100223.59
2022-09-29T18:57:56.196Z,100227.13
2022-09-29T19:00:23.732Z,100220.97
2022-09-29T19:02:50.610Z,100233.25
2022-09-29T19:05:21.001Z,100232.34
2022-09-29T19:07:48.794Z,100242.91
2022-09-29T19:10:16.431Z,100235.88
2022-09-29T19:12:48.045Z,100235.88
2022-09-29T19:15:21.736Z,100236.78
2022-09-29T19:17:48.642Z,100248.22
2022-09-29T19:20:16.455Z,100240.31
2022-09-29T19:22:43.400Z,100243.81
2022-09-29T19:25:17.293Z,100247.34
2022-09-29T19:27:43.717Z,100249.97
2022-09-29T19:30:10.818Z,100255.25
2022-09-29T19:32:37.168Z,100257.88
2022-09-29T19:35:04.122Z,100252.59
2022-09-29T19:37:30.380Z,100259.63
2022-09-29T19:39:56.713Z,100267.53
2022-09-29T19:42:23.018Z,100267.53
2022-09-29T19:44:49.295Z,100272.81
2022-09-29T19:47:16.460Z,100273.66
2022-09-29T19:49:42.747Z,100277.19
2022-09-29T19:52:09.067Z,100288.63
2022-09-29T19:54:37.013Z,100286.00
2022-09-29T19:57:05.601Z,100280.72
2022-09-29T19:59:33.135Z,100294.75
2022-09-29T20:02:00.270Z,100290.38
2022-09-29T20:04:30.164Z,100298.28
2022-09-29T20:06:56.654Z,100293.00
2022-09-29T20:09:23.078Z,100293.88
2022-09-29T20:11:49.808Z,100300.91
2022-09-29T20:14:18.412Z,100307.06
2022-09-29T20:16:45.374Z,100307.06
2022-09-29T20:19:15.429Z,100310.59
2022-09-29T20:21:45.869Z,100314.13
2022-09-29T20:24:14.187Z,100313.22
2022-09-29T20:26:41.284Z,100321.16
2022-09-29T20:29:08.375Z,100321.16
2022-09-29T20:31:36.219Z,100319.41
2022-09-29T20:34:02.549Z,100326.41
2022-09-29T20:36:28.839Z,100326.41
2022-09-29T20:38:55.197Z,100324.63
2022-09-29T20:41:21.486Z,100329.91
2022-09-29T20:43:48.933Z,100326.41
2022-09-29T20:46:15.666Z,100332.53
2022-09-29T20:48:42.261Z,100332.53
2022-09-29T20:51:15.148Z,100338.72
2022-09-29T20:53:46.194Z,100338.72
2022-09-29T20:56:16.574Z,100341.34
2022-09-29T20:58:44.251Z,100340.47
2022-09-29T21:01:23.128Z,100349.25
2022-09-29T21:03:59.391Z,100345.75
2022-09-29T21:06:29.575Z,100344.00
2022-09-29T21:08:57.198Z,100341.34
2022-09-29T21:11:23.640Z,100349.25
2022-09-29T21:13:51.004Z,100349.25
2022-09-29T21:16:20.424Z,100351.00
2022-09-29T21:18:46.693Z,100348.38
2022-09-29T21:21:13.022Z,100353.69
2022-09-29T21:23:40.266Z,100351.91
2022-09-29T21:26:14.251Z,100362.47
2022-09-29T21:28:50.899Z,100356.34
2022-09-29T21:31:18.239Z,100359.88
2022-09-29T21:33:45.033Z,100362.53
2022-09-29T21:36:17.382Z,100359.88
2022-09-29T21:38:44.279Z,100366.00
2022-09-29T21:41:22.961Z,100366.00
2022-09-29T21:43:50.741Z,100372.19
2022-09-29T21:46:18.650Z,100377.47
2022-09-29T21:48:46.688Z,100378.34
2022-09-29T21:51:14.465Z,100376.56
2022-09-29T21:53:41.313Z,100375.72
2022-09-29T21:56:17.979Z,100379.25
2022-09-29T21:58:45.868Z,100381.00
2022-09-29T22:01:12.760Z,100384.53
2022-09-29T22:03:41.179Z,100390.66
2022-09-29T22:06:12.151Z,100385.38
2022-09-29T22:08:38.449Z,100386.28
2022-09-29T22:11:05.032Z,100392.44
2022-09-29T22:13:32.729Z,100389.81
2022-09-29T22:16:04.244Z,100395.97
2022-09-29T22:18:41.132Z,100398.63
2022-09-29T22:21:09.624Z,100399.47
2022-09-29T22:23:36.209Z,100397.72
2022-09-29T22:26:03.398Z,100399.50
2022-09-29T22:28:29.740Z,100394.25
2022-09-29T22:31:05.197Z,100401.25
2022-09-29T22:33:33.651Z,100403.00
2022-09-29T22:36:00.580Z,100406.53
2022-09-29T22:38:26.909Z,100410.91
2022-09-29T22:40:53.892Z,100407.44
2022-09-29T22:43:20.509Z,100412.66
2022-09-29T22:45:48.147Z,100410.91
2022-09-29T22:48:14.824Z,100417.09
2022-09-29T22:50:43.382Z,100417.09
2022-09-29T22:53:09.643Z,100409.19
2022-09-29T22:55:36.077Z,100403.91
2022-09-29T22:58:02.353Z,100410.97
2022-09-29T23:00:28.648Z,100414.47
2022-09-29T23:02:54.901Z,100414.47
2022-09-29T23:05:21.205Z,100414.47
2022-09-29T23:07:47.457Z,100417.09
2022-09-29T23:10:13.851Z,100418.00
2022-09-29T23:12:44.902Z,100418.00
2022-09-29T23:15:11.332Z,100415.34
2022-09-29T23:17:37.600Z,100423.25
2022-09-29T23:20:04.754Z,100424.16
2022-09-29T23:22:31.191Z,100418.88
2022-09-29T23:24:57.465Z,100418.88
2022-09-29T23:27:24.056Z,100415.34
2022-09-29T23:29:50.314Z,100424.16
2022-09-29T23:32:17.361Z,100418.91
2022-09-29T23:34:44.143Z,100425.09
2022-09-29T23:37:10.592Z,100415.38
2022-09-29T23:39:36.846Z,100428.56
2022-09-29T23:42:03.845Z,100432.09
2022-09-29T23:44:30.841Z,100428.59
2022-09-29T23:46:57.290Z,100433.88
2022-09-29T23:49:25.109Z,100429.50
2022-09-29T23:51:52.440Z,100435.63
2022-09-29T23:54:19.989Z,100429.50
2022-09-29T23:56:47.249Z,100433.88
2022-09-29T23:59:13.589Z,100433.00
